sensor_id;sensor_type;location;lat;lon;timestamp;P1;durP1;ratioP1;P2;durP2;ratioP2
17604;SDS011;8921;50.964;6.800;2023-09-07T00:02:22;11.20;;;8.80;;
17604;SDS011;8921;50.964;6.800;2023-09-07T00:04:51;13.40;;;10.73;;
17604;SDS011;8921;50.964;6.800;2023-09-07T00:07:19;11.77;;;8.80;;
17604;SDS011;8921;50.964;6.800;2023-09-07T00:09:47;11.47;;;8.53;;
17604;SDS011;8921;50.964;6.800;2023-09-07T00:12:15;20.40;;;11.87;;
17604;SDS011;8921;50.964;6.800;2023-09-07T00:14:47;13.70;;;9.20;;
17604;SDS011;8921;50.964;6.800;2023-09-07T00:17:15;15.20;;;10.00;;
17604;SDS011;8921;50.964;6.800;2023-09-07T00:19:43;12.83;;;8.67;;
17604;SDS011;8921;50.964;6.800;2023-09-07T00:22:11;11.67;;;8.80;;
17604;SDS011;8921;50.964;6.800;2023-09-07T00:24:40;12.73;;;8.80;;
17604;SDS011;8921;50.964;6.800;2023-09-07T00:27:08;12.90;;;9.27;;
17604;SDS011;8921;50.964;6.800;2023-09-07T00:29:36;13.77;;;8.60;;
17604;SDS011;8921;50.964;6.800;2023-09-07T00:32:04;15.40;;;8.47;;
17604;SDS011;8921;50.964;6.800;2023-09-07T00:34:33;12.90;;;8.90;;
17604;SDS011;8921;50.964;6.800;2023-09-07T00:37:01;12.43;;;9.00;;
17604;SDS011;8921;50.964;6.800;2023-09-07T00:39:29;12.27;;;8.40;;
17604;SDS011;8921;50.964;6.800;2023-09-07T00:41:58;12.83;;;9.20;;
17604;SDS011;8921;50.964;6.800;2023-09-07T00:44:26;12.53;;;8.23;;
17604;SDS011;8921;50.964;6.800;2023-09-07T00:46:55;11.57;;;7.93;;
17604;SDS011;8921;50.964;6.800;2023-09-07T00:49:23;11.80;;;8.20;;
17604;SDS011;8921;50.964;6.800;2023-09-07T00:51:51;12.30;;;9.67;;
17604;SDS011;8921;50.964;6.800;2023-09-07T00:54:19;14.83;;;8.37;;
17604;SDS011;8921;50.964;6.800;2023-09-07T00:56:47;12.63;;;9.23;;
17604;SDS011;8921;50.964;6.800;2023-09-07T00:59:15;11.40;;;8.43;;
17604;SDS011;8921;50.964;6.800;2023-09-07T01:01:44;12.87;;;8.80;;
17604;SDS011;8921;50.964;6.800;2023-09-07T01:04:12;14.20;;;9.97;;
17604;SDS011;8921;50.964;6.800;2023-09-07T01:06:55;15.20;;;9.80;;
17604;SDS011;8921;50.964;6.800;2023-09-07T01:09:21;14.43;;;9.97;;
17604;SDS011;8921;50.964;6.800;2023-09-07T01:11:49;12.87;;;8.87;;
17604;SDS011;8921;50.964;6.800;2023-09-07T01:14:17;15.00;;;9.20;;
17604;SDS011;8921;50.964;6.800;2023-09-07T01:16:45;11.70;;;8.70;;
17604;SDS011;8921;50.964;6.800;2023-09-07T01:19:13;13.37;;;8.50;;
17604;SDS011;8921;50.964;6.800;2023-09-07T01:21:42;16.60;;;9.00;;
17604;SDS011;8921;50.964;6.800;2023-09-07T01:24:10;12.53;;;8.97;;
17604;SDS011;8921;50.964;6.800;2023-09-07T01:26:38;14.30;;;8.03;;
17604;SDS011;8921;50.964;6.800;2023-09-07T01:29:07;12.07;;;9.53;;
17604;SDS011;8921;50.964;6.800;2023-09-07T01:31:38;16.20;;;8.80;;
17604;SDS011;8921;50.964;6.800;2023-09-07T01:34:06;12.73;;;8.80;;
17604;SDS011;8921;50.964;6.800;2023-09-07T01:36:34;13.73;;;9.60;;
17604;SDS011;8921;50.964;6.800;2023-09-07T01:39:03;13.07;;;9.30;;
17604;SDS011;8921;50.964;6.800;2023-09-07T01:41:30;15.30;;;9.23;;
17604;SDS011;8921;50.964;6.800;2023-09-07T01:43:59;14.77;;;8.60;;
17604;SDS011;8921;50.964;6.800;2023-09-07T01:46:27;17.70;;;10.13;;
17604;SDS011;8921;50.964;6.800;2023-09-07T01:48:55;15.60;;;9.40;;
17604;SDS011;8921;50.964;6.800;2023-09-07T01:51:23;12.67;;;9.07;;
17604;SDS011;8921;50.964;6.800;2023-09-07T01:53:52;11.53;;;8.30;;
17604;SDS011;8921;50.964;6.800;2023-09-07T01:56:20;17.23;;;9.40;;
17604;SDS011;8921;50.964;6.800;2023-09-07T01:58:48;12.17;;;8.80;;
17604;SDS011;8921;50.964;6.800;2023-09-07T02:01:30;13.27;;;8.93;;
17604;SDS011;8921;50.964;6.800;2023-09-07T02:03:57;13.53;;;9.23;;
17604;SDS011;8921;50.964;6.800;2023-09-07T02:06:25;13.80;;;9.73;;
17604;SDS011;8921;50.964;6.800;2023-09-07T02:08:53;13.47;;;9.50;;
17604;SDS011;8921;50.964;6.800;2023-09-07T02:11:21;14.00;;;9.40;;
17604;SDS011;8921;50.964;6.800;2023-09-07T02:13:50;15.07;;;9.47;;
17604;SDS011;8921;50.964;6.800;2023-09-07T02:16:18;11.50;;;9.50;;
17604;SDS011;8921;50.964;6.800;2023-09-07T02:18:49;13.37;;;9.60;;
17604;SDS011;8921;50.964;6.800;2023-09-07T02:21:15;14.37;;;8.57;;
17604;SDS011;8921;50.964;6.800;2023-09-07T02:23:43;12.67;;;9.33;;
17604;SDS011;8921;50.964;6.800;2023-09-07T02:26:11;11.93;;;8.23;;
17604;SDS011;8921;50.964;6.800;2023-09-07T02:28:39;12.57;;;7.67;;
17604;SDS011;8921;50.964;6.800;2023-09-07T02:31:08;11.03;;;7.60;;
17604;SDS011;8921;50.964;6.800;2023-09-07T02:33:36;10.00;;;6.90;;
17604;SDS011;8921;50.964;6.800;2023-09-07T02:36:04;20.23;;;8.10;;
17604;SDS011;8921;50.964;6.800;2023-09-07T02:38:32;14.47;;;8.97;;
17604;SDS011;8921;50.964;6.800;2023-09-07T02:41:01;14.60;;;9.40;;
17604;SDS011;8921;50.964;6.800;2023-09-07T02:43:29;12.90;;;8.80;;
17604;SDS011;8921;50.964;6.800;2023-09-07T02:45:57;16.40;;;10.80;;
17604;SDS011;8921;50.964;6.800;2023-09-07T02:48:25;12.03;;;8.40;;
17604;SDS011;8921;50.964;6.800;2023-09-07T02:50:54;15.03;;;8.37;;
17604;SDS011;8921;50.964;6.800;2023-09-07T02:53:22;15.40;;;9.33;;
17604;SDS011;8921;50.964;6.800;2023-09-07T02:55:50;13.47;;;9.00;;
17604;SDS011;8921;50.964;6.800;2023-09-07T02:58:18;12.93;;;8.53;;
17604;SDS011;8921;50.964;6.800;2023-09-07T03:00:47;12.77;;;8.80;;
17604;SDS011;8921;50.964;6.800;2023-09-07T03:03:15;12.47;;;8.47;;
17604;SDS011;8921;50.964;6.800;2023-09-07T03:05:43;13.10;;;7.40;;
17604;SDS011;8921;50.964;6.800;2023-09-07T03:08:11;12.43;;;8.70;;
17604;SDS011;8921;50.964;6.800;2023-09-07T03:10:40;10.93;;;7.40;;
17604;SDS011;8921;50.964;6.800;2023-09-07T03:13:08;12.53;;;8.50;;
17604;SDS011;8921;50.964;6.800;2023-09-07T03:15:36;13.73;;;7.60;;
17604;SDS011;8921;50.964;6.800;2023-09-07T03:18:05;11.80;;;7.10;;
17604;SDS011;8921;50.964;6.800;2023-09-07T03:20:33;11.83;;;8.87;;
17604;SDS011;8921;50.964;6.800;2023-09-07T03:23:01;14.50;;;8.40;;
17604;SDS011;8921;50.964;6.800;2023-09-07T03:25:29;12.00;;;7.53;;
17604;SDS011;8921;50.964;6.800;2023-09-07T03:27:58;14.00;;;8.80;;
17604;SDS011;8921;50.964;6.800;2023-09-07T03:30:26;11.60;;;6.67;;
17604;SDS011;8921;50.964;6.800;2023-09-07T03:32:54;16.10;;;8.30;;
17604;SDS011;8921;50.964;6.800;2023-09-07T03:35:22;14.50;;;7.77;;
17604;SDS011;8921;50.964;6.800;2023-09-07T03:37:51;11.60;;;8.13;;
17604;SDS011;8921;50.964;6.800;2023-09-07T03:40:19;11.60;;;7.60;;
17604;SDS011;8921;50.964;6.800;2023-09-07T03:42:47;11.43;;;7.60;;
17604;SDS011;8921;50.964;6.800;2023-09-07T03:45:16;11.10;;;8.60;;
17604;SDS011;8921;50.964;6.800;2023-09-07T03:47:44;14.63;;;8.13;;
17604;SDS011;8921;50.964;6.800;2023-09-07T03:50:13;11.87;;;8.00;;
17604;SDS011;8921;50.964;6.800;2023-09-07T03:52:41;11.43;;;8.73;;
17604;SDS011;8921;50.964;6.800;2023-09-07T03:55:09;12.60;;;8.20;;
17604;SDS011;8921;50.964;6.800;2023-09-07T03:57:37;12.60;;;7.00;;
17604;SDS011;8921;50.964;6.800;2023-09-07T04:00:06;11.70;;;8.53;;
17604;SDS011;8921;50.964;6.800;2023-09-07T04:02:34;13.20;;;7.67;;
17604;SDS011;8921;50.964;6.800;2023-09-07T04:05:02;12.30;;;8.40;;
17604;SDS011;8921;50.964;6.800;2023-09-07T04:07:34;13.60;;;8.77;;
17604;SDS011;8921;50.964;6.800;2023-09-07T04:10:02;11.93;;;8.23;;
17604;SDS011;8921;50.964;6.800;2023-09-07T04:12:30;9.83;;;7.80;;
17604;SDS011;8921;50.964;6.800;2023-09-07T04:15:00;15.43;;;8.80;;
17604;SDS011;8921;50.964;6.800;2023-09-07T04:17:27;14.63;;;9.27;;
17604;SDS011;8921;50.964;6.800;2023-09-07T04:19:55;12.40;;;8.23;;
17604;SDS011;8921;50.964;6.800;2023-09-07T04:22:23;12.20;;;8.47;;
17604;SDS011;8921;50.964;6.800;2023-09-07T04:24:52;12.23;;;8.80;;
17604;SDS011;8921;50.964;6.800;2023-09-07T04:27:20;15.87;;;10.90;;
17604;SDS011;8921;50.964;6.800;2023-09-07T04:29:48;12.50;;;8.47;;
17604;SDS011;8921;50.964;6.800;2023-09-07T04:32:16;15.60;;;8.20;;
17604;SDS011;8921;50.964;6.800;2023-09-07T04:34:45;12.07;;;8.97;;
17604;SDS011;8921;50.964;6.800;2023-09-07T04:37:13;12.70;;;7.27;;
17604;SDS011;8921;50.964;6.800;2023-09-07T04:39:41;14.80;;;8.83;;
17604;SDS011;8921;50.964;6.800;2023-09-07T04:42:09;16.90;;;8.90;;
17604;SDS011;8921;50.964;6.800;2023-09-07T04:44:38;12.37;;;8.57;;
17604;SDS011;8921;50.964;6.800;2023-09-07T04:47:06;15.07;;;10.23;;
17604;SDS011;8921;50.964;6.800;2023-09-07T04:49:34;15.40;;;9.13;;
17604;SDS011;8921;50.964;6.800;2023-09-07T04:52:03;13.60;;;8.93;;
17604;SDS011;8921;50.964;6.800;2023-09-07T04:54:31;15.67;;;8.87;;
17604;SDS011;8921;50.964;6.800;2023-09-07T04:56:59;11.17;;;8.10;;
17604;SDS011;8921;50.964;6.800;2023-09-07T04:59:27;14.80;;;9.43;;
17604;SDS011;8921;50.964;6.800;2023-09-07T05:01:59;16.13;;;10.23;;
17604;SDS011;8921;50.964;6.800;2023-09-07T05:04:24;15.70;;;10.30;;
17604;SDS011;8921;50.964;6.800;2023-09-07T05:06:52;14.17;;;9.53;;
17604;SDS011;8921;50.964;6.800;2023-09-07T05:09:20;14.80;;;9.83;;
17604;SDS011;8921;50.964;6.800;2023-09-07T05:11:49;19.50;;;9.30;;
17604;SDS011;8921;50.964;6.800;2023-09-07T05:14:17;11.67;;;8.77;;
17604;SDS011;8921;50.964;6.800;2023-09-07T05:16:45;17.23;;;8.70;;
17604;SDS011;8921;50.964;6.800;2023-09-07T05:19:14;13.60;;;8.93;;
17604;SDS011;8921;50.964;6.800;2023-09-07T05:21:42;19.63;;;10.67;;
17604;SDS011;8921;50.964;6.800;2023-09-07T05:24:12;17.00;;;9.80;;
17604;SDS011;8921;50.964;6.800;2023-09-07T05:26:38;18.80;;;12.93;;
17604;SDS011;8921;50.964;6.800;2023-09-07T05:29:06;13.93;;;9.33;;
17604;SDS011;8921;50.964;6.800;2023-09-07T05:31:35;17.13;;;9.77;;
17604;SDS011;8921;50.964;6.800;2023-09-07T05:34:03;12.53;;;8.23;;
17604;SDS011;8921;50.964;6.800;2023-09-07T05:36:31;24.37;;;8.93;;
17604;SDS011;8921;50.964;6.800;2023-09-07T05:39:00;15.63;;;9.37;;
17604;SDS011;8921;50.964;6.800;2023-09-07T05:41:28;13.73;;;8.43;;
17604;SDS011;8921;50.964;6.800;2023-09-07T05:43:56;13.13;;;7.77;;
17604;SDS011;8921;50.964;6.800;2023-09-07T05:46:24;20.70;;;9.60;;
17604;SDS011;8921;50.964;6.800;2023-09-07T05:48:53;11.57;;;7.83;;
17604;SDS011;8921;50.964;6.800;2023-09-07T05:51:21;13.10;;;8.17;;
17604;SDS011;8921;50.964;6.800;2023-09-07T05:53:49;13.90;;;7.87;;
17604;SDS011;8921;50.964;6.800;2023-09-07T05:56:17;10.87;;;7.43;;
17604;SDS011;8921;50.964;6.800;2023-09-07T05:58:46;11.23;;;7.73;;
17604;SDS011;8921;50.964;6.800;2023-09-07T06:01:14;10.70;;;7.40;;
17604;SDS011;8921;50.964;6.800;2023-09-07T06:03:42;10.47;;;7.20;;
17604;SDS011;8921;50.964;6.800;2023-09-07T06:06:11;12.83;;;7.93;;
17604;SDS011;8921;50.964;6.800;2023-09-07T06:08:39;14.67;;;8.60;;
17604;SDS011;8921;50.964;6.800;2023-09-07T06:11:07;13.43;;;7.40;;
17604;SDS011;8921;50.964;6.800;2023-09-07T06:13:35;11.30;;;7.03;;
17604;SDS011;8921;50.964;6.800;2023-09-07T06:16:04;10.53;;;7.60;;
17604;SDS011;8921;50.964;6.800;2023-09-07T06:18:32;11.17;;;8.07;;
17604;SDS011;8921;50.964;6.800;2023-09-07T06:21:00;21.40;;;7.90;;
17604;SDS011;8921;50.964;6.800;2023-09-07T06:23:28;12.27;;;8.37;;
17604;SDS011;8921;50.964;6.800;2023-09-07T06:25:57;15.50;;;9.67;;
17604;SDS011;8921;50.964;6.800;2023-09-07T06:28:25;13.00;;;8.27;;
17604;SDS011;8921;50.964;6.800;2023-09-07T06:30:53;16.00;;;9.17;;
17604;SDS011;8921;50.964;6.800;2023-09-07T06:33:22;13.13;;;8.80;;
17604;SDS011;8921;50.964;6.800;2023-09-07T06:35:50;14.83;;;7.60;;
17604;SDS011;8921;50.964;6.800;2023-09-07T06:38:18;13.60;;;7.90;;
17604;SDS011;8921;50.964;6.800;2023-09-07T06:40:47;10.93;;;6.83;;
17604;SDS011;8921;50.964;6.800;2023-09-07T06:43:15;11.10;;;7.37;;
17604;SDS011;8921;50.964;6.800;2023-09-07T06:45:43;11.00;;;6.40;;
17604;SDS011;8921;50.964;6.800;2023-09-07T06:48:11;14.17;;;6.70;;
17604;SDS011;8921;50.964;6.800;2023-09-07T06:50:39;12.83;;;6.87;;
17604;SDS011;8921;50.964;6.800;2023-09-07T06:53:08;10.70;;;7.10;;
17604;SDS011;8921;50.964;6.800;2023-09-07T06:55:36;10.57;;;6.83;;
17604;SDS011;8921;50.964;6.800;2023-09-07T06:58:04;8.97;;;6.17;;
17604;SDS011;8921;50.964;6.800;2023-09-07T07:00:33;12.00;;;6.90;;
17604;SDS011;8921;50.964;6.800;2023-09-07T07:03:01;9.93;;;5.90;;
17604;SDS011;8921;50.964;6.800;2023-09-07T07:05:29;8.20;;;5.53;;
17604;SDS011;8921;50.964;6.800;2023-09-07T07:07:57;11.10;;;6.50;;
17604;SDS011;8921;50.964;6.800;2023-09-07T07:10:25;9.40;;;6.13;;
17604;SDS011;8921;50.964;6.800;2023-09-07T07:12:54;9.63;;;5.53;;
17604;SDS011;8921;50.964;6.800;2023-09-07T07:15:22;12.63;;;5.63;;
17604;SDS011;8921;50.964;6.800;2023-09-07T07:17:50;11.90;;;6.90;;
17604;SDS011;8921;50.964;6.800;2023-09-07T07:20:19;9.40;;;5.20;;
17604;SDS011;8921;50.964;6.800;2023-09-07T07:22:47;16.63;;;6.30;;
17604;SDS011;8921;50.964;6.800;2023-09-07T07:25:15;10.73;;;5.73;;
17604;SDS011;8921;50.964;6.800;2023-09-07T07:27:43;11.63;;;6.40;;
17604;SDS011;8921;50.964;6.800;2023-09-07T07:30:12;10.60;;;5.70;;
17604;SDS011;8921;50.964;6.800;2023-09-07T07:32:40;8.00;;;5.27;;
17604;SDS011;8921;50.964;6.800;2023-09-07T07:35:08;9.77;;;5.70;;
17604;SDS011;8921;50.964;6.800;2023-09-07T07:37:36;9.93;;;6.17;;
17604;SDS011;8921;50.964;6.800;2023-09-07T07:40:05;7.73;;;4.90;;
17604;SDS011;8921;50.964;6.800;2023-09-07T07:42:33;11.57;;;5.87;;
17604;SDS011;8921;50.964;6.800;2023-09-07T07:45:02;13.33;;;5.10;;
17604;SDS011;8921;50.964;6.800;2023-09-07T07:47:30;9.50;;;4.30;;
17604;SDS011;8921;50.964;6.800;2023-09-07T07:49:58;9.83;;;4.97;;
17604;SDS011;8921;50.964;6.800;2023-09-07T07:52:27;7.77;;;4.97;;
17604;SDS011;8921;50.964;6.800;2023-09-07T07:54:55;8.30;;;4.73;;
17604;SDS011;8921;50.964;6.800;2023-09-07T07:57:23;7.33;;;4.77;;
17604;SDS011;8921;50.964;6.800;2023-09-07T07:59:51;10.50;;;5.10;;
17604;SDS011;8921;50.964;6.800;2023-09-07T08:02:20;10.40;;;5.00;;
17604;SDS011;8921;50.964;6.800;2023-09-07T08:04:48;7.50;;;4.43;;
17604;SDS011;8921;50.964;6.800;2023-09-07T08:07:16;15.90;;;5.70;;
17604;SDS011;8921;50.964;6.800;2023-09-07T08:09:44;11.00;;;4.77;;
17604;SDS011;8921;50.964;6.800;2023-09-07T08:12:13;11.07;;;5.83;;
17604;SDS011;8921;50.964;6.800;2023-09-07T08:14:41;8.43;;;4.97;;
17604;SDS011;8921;50.964;6.800;2023-09-07T08:17:09;9.83;;;5.67;;
17604;SDS011;8921;50.964;6.800;2023-09-07T08:19:38;12.20;;;5.47;;
17604;SDS011;8921;50.964;6.800;2023-09-07T08:22:06;6.77;;;4.60;;
17604;SDS011;8921;50.964;6.800;2023-09-07T08:24:34;8.70;;;5.27;;
17604;SDS011;8921;50.964;6.800;2023-09-07T08:27:02;11.20;;;4.70;;
17604;SDS011;8921;50.964;6.800;2023-09-07T08:29:31;8.77;;;5.10;;
17604;SDS011;8921;50.964;6.800;2023-09-07T08:31:59;10.50;;;5.20;;
17604;SDS011;8921;50.964;6.800;2023-09-07T08:34:27;13.23;;;6.30;;
17604;SDS011;8921;50.964;6.800;2023-09-07T08:36:56;8.83;;;5.37;;
17604;SDS011;8921;50.964;6.800;2023-09-07T08:39:24;10.37;;;5.17;;
17604;SDS011;8921;50.964;6.800;2023-09-07T08:41:52;9.57;;;4.90;;
17604;SDS011;8921;50.964;6.800;2023-09-07T08:44:20;7.20;;;5.03;;
17604;SDS011;8921;50.964;6.800;2023-09-07T08:46:49;7.90;;;5.57;;
17604;SDS011;8921;50.964;6.800;2023-09-07T08:49:17;10.37;;;5.33;;
17604;SDS011;8921;50.964;6.800;2023-09-07T08:51:48;10.87;;;5.47;;
17604;SDS011;8921;50.964;6.800;2023-09-07T08:54:16;9.80;;;5.10;;
17604;SDS011;8921;50.964;6.800;2023-09-07T08:56:45;8.50;;;5.07;;
17604;SDS011;8921;50.964;6.800;2023-09-07T08:59:13;9.40;;;4.90;;
17604;SDS011;8921;50.964;6.800;2023-09-07T09:01:41;7.57;;;5.10;;
17604;SDS011;8921;50.964;6.800;2023-09-07T09:04:09;7.70;;;4.73;;
17604;SDS011;8921;50.964;6.800;2023-09-07T09:06:38;10.63;;;5.33;;
17604;SDS011;8921;50.964;6.800;2023-09-07T09:09:06;10.77;;;5.30;;
17604;SDS011;8921;50.964;6.800;2023-09-07T09:11:34;10.87;;;5.50;;
17604;SDS011;8921;50.964;6.800;2023-09-07T09:14:04;10.77;;;4.50;;
17604;SDS011;8921;50.964;6.800;2023-09-07T09:16:31;10.00;;;6.17;;
17604;SDS011;8921;50.964;6.800;2023-09-07T09:18:59;14.13;;;4.20;;
17604;SDS011;8921;50.964;6.800;2023-09-07T09:21:27;11.37;;;6.00;;
17604;SDS011;8921;50.964;6.800;2023-09-07T09:23:56;15.07;;;6.83;;
17604;SDS011;8921;50.964;6.800;2023-09-07T09:26:24;10.40;;;5.43;;
17604;SDS011;8921;50.964;6.800;2023-09-07T09:28:55;12.60;;;5.57;;
17604;SDS011;8921;50.964;6.800;2023-09-07T09:31:20;16.63;;;5.20;;
17604;SDS011;8921;50.964;6.800;2023-09-07T09:36:32;12.03;;;5.10;;
17604;SDS011;8921;50.964;6.800;2023-09-07T09:38:55;8.30;;;4.87;;
17604;SDS011;8921;50.964;6.800;2023-09-07T09:41:23;7.57;;;5.13;;
17604;SDS011;8921;50.964;6.800;2023-09-07T09:43:52;11.57;;;5.60;;
17604;SDS011;8921;50.964;6.800;2023-09-07T09:46:20;8.77;;;4.80;;
17604;SDS011;8921;50.964;6.800;2023-09-07T09:48:48;10.90;;;5.40;;
17604;SDS011;8921;50.964;6.800;2023-09-07T09:51:16;8.57;;;5.20;;
17604;SDS011;8921;50.964;6.800;2023-09-07T09:53:45;10.10;;;5.50;;
17604;SDS011;8921;50.964;6.800;2023-09-07T09:56:13;10.83;;;6.27;;
17604;SDS011;8921;50.964;6.800;2023-09-07T09:58:41;13.20;;;5.00;;
17604;SDS011;8921;50.964;6.800;2023-09-07T10:01:09;8.30;;;4.80;;
17604;SDS011;8921;50.964;6.800;2023-09-07T10:03:38;8.80;;;4.83;;
17604;SDS011;8921;50.964;6.800;2023-09-07T10:06:10;12.57;;;5.63;;
17604;SDS011;8921;50.964;6.800;2023-09-07T10:08:37;9.40;;;5.20;;
17604;SDS011;8921;50.964;6.800;2023-09-07T10:11:08;7.07;;;4.87;;
17604;SDS011;8921;50.964;6.800;2023-09-07T10:13:37;10.03;;;6.10;;
17604;SDS011;8921;50.964;6.800;2023-09-07T10:16:06;9.30;;;5.30;;
17604;SDS011;8921;50.964;6.800;2023-09-07T10:18:36;14.87;;;5.27;;
17604;SDS011;8921;50.964;6.800;2023-09-07T10:21:04;11.40;;;5.33;;
17604;SDS011;8921;50.964;6.800;2023-09-07T10:26:13;10.40;;;5.43;;
17604;SDS011;8921;50.964;6.800;2023-09-07T10:28:43;10.70;;;4.60;;
17604;SDS011;8921;50.964;6.800;2023-09-07T10:31:15;9.20;;;4.97;;
17604;SDS011;8921;50.964;6.800;2023-09-07T10:33:43;8.83;;;4.80;;
17604;SDS011;8921;50.964;6.800;2023-09-07T10:36:20;10.73;;;5.47;;
17604;SDS011;8921;50.964;6.800;2023-09-07T10:38:48;14.00;;;5.30;;
17604;SDS011;8921;50.964;6.800;2023-09-07T10:41:16;9.03;;;5.40;;
17604;SDS011;8921;50.964;6.800;2023-09-07T10:43:51;7.80;;;4.43;;
17604;SDS011;8921;50.964;6.800;2023-09-07T10:46:19;10.50;;;5.03;;
17604;SDS011;8921;50.964;6.800;2023-09-07T10:48:50;9.20;;;5.70;;
17604;SDS011;8921;50.964;6.800;2023-09-07T10:51:18;13.60;;;5.40;;
17604;SDS011;8921;50.964;6.800;2023-09-07T10:53:46;9.47;;;4.73;;
17604;SDS011;8921;50.964;6.800;2023-09-07T10:56:14;8.70;;;5.10;;
17604;SDS011;8921;50.964;6.800;2023-09-07T10:58:43;8.53;;;4.43;;
17604;SDS011;8921;50.964;6.800;2023-09-07T11:01:11;10.27;;;5.10;;
17604;SDS011;8921;50.964;6.800;2023-09-07T11:03:39;10.03;;;4.60;;
17604;SDS011;8921;50.964;6.800;2023-09-07T11:06:11;17.07;;;5.50;;
17604;SDS011;8921;50.964;6.800;2023-09-07T11:08:38;8.63;;;5.10;;
17604;SDS011;8921;50.964;6.800;2023-09-07T11:11:07;12.43;;;5.30;;
17604;SDS011;8921;50.964;6.800;2023-09-07T11:13:35;13.87;;;6.00;;
17604;SDS011;8921;50.964;6.800;2023-09-07T11:16:06;8.80;;;5.20;;
17604;SDS011;8921;50.964;6.800;2023-09-07T11:18:31;9.13;;;5.00;;
17604;SDS011;8921;50.964;6.800;2023-09-07T11:21:00;10.97;;;4.93;;
17604;SDS011;8921;50.964;6.800;2023-09-07T11:23:28;8.80;;;5.33;;
17604;SDS011;8921;50.964;6.800;2023-09-07T11:25:56;6.80;;;4.27;;
17604;SDS011;8921;50.964;6.800;2023-09-07T11:28:24;8.90;;;4.90;;
17604;SDS011;8921;50.964;6.800;2023-09-07T11:30:53;7.87;;;4.77;;
17604;SDS011;8921;50.964;6.800;2023-09-07T11:33:21;7.57;;;5.07;;
17604;SDS011;8921;50.964;6.800;2023-09-07T11:35:50;7.20;;;4.80;;
17604;SDS011;8921;50.964;6.800;2023-09-07T11:38:18;14.77;;;5.37;;
17604;SDS011;8921;50.964;6.800;2023-09-07T11:40:46;11.30;;;5.23;;
17604;SDS011;8921;50.964;6.800;2023-09-07T11:43:14;7.47;;;4.93;;
17604;SDS011;8921;50.964;6.800;2023-09-07T11:45:43;9.80;;;4.90;;
17604;SDS011;8921;50.964;6.800;2023-09-07T11:48:11;7.30;;;4.70;;
17604;SDS011;8921;50.964;6.800;2023-09-07T11:50:39;7.30;;;4.83;;
17604;SDS011;8921;50.964;6.800;2023-09-07T11:53:07;8.17;;;4.60;;
17604;SDS011;8921;50.964;6.800;2023-09-07T11:55:35;7.77;;;5.13;;
17604;SDS011;8921;50.964;6.800;2023-09-07T11:58:04;13.10;;;6.40;;
17604;SDS011;8921;50.964;6.800;2023-09-07T12:00:32;8.20;;;4.40;;
17604;SDS011;8921;50.964;6.800;2023-09-07T12:03:00;7.53;;;5.20;;
17604;SDS011;8921;50.964;6.800;2023-09-07T12:05:28;8.50;;;4.63;;
17604;SDS011;8921;50.964;6.800;2023-09-07T12:07:57;9.80;;;5.50;;
17604;SDS011;8921;50.964;6.800;2023-09-07T12:10:25;11.67;;;5.10;;
17604;SDS011;8921;50.964;6.800;2023-09-07T12:12:53;10.93;;;4.53;;
17604;SDS011;8921;50.964;6.800;2023-09-07T12:15:22;12.40;;;5.60;;
17604;SDS011;8921;50.964;6.800;2023-09-07T12:17:50;9.33;;;4.53;;
17604;SDS011;8921;50.964;6.800;2023-09-07T12:20:18;10.03;;;4.97;;
17604;SDS011;8921;50.964;6.800;2023-09-07T12:22:46;8.80;;;5.00;;
17604;SDS011;8921;50.964;6.800;2023-09-07T12:25:15;7.87;;;4.60;;
17604;SDS011;8921;50.964;6.800;2023-09-07T12:27:43;9.80;;;5.10;;
17604;SDS011;8921;50.964;6.800;2023-09-07T12:30:11;8.60;;;5.20;;
17604;SDS011;8921;50.964;6.800;2023-09-07T12:32:40;8.53;;;4.30;;
17604;SDS011;8921;50.964;6.800;2023-09-07T12:35:08;8.57;;;4.37;;
17604;SDS011;8921;50.964;6.800;2023-09-07T12:37:36;7.63;;;4.47;;
17604;SDS011;8921;50.964;6.800;2023-09-07T12:40:05;10.80;;;4.87;;
17604;SDS011;8921;50.964;6.800;2023-09-07T12:42:33;8.03;;;4.47;;
17604;SDS011;8921;50.964;6.800;2023-09-07T12:45:01;9.17;;;4.93;;
17604;SDS011;8921;50.964;6.800;2023-09-07T12:47:30;20.80;;;4.60;;
17604;SDS011;8921;50.964;6.800;2023-09-07T12:49:58;11.53;;;5.10;;
17604;SDS011;8921;50.964;6.800;2023-09-07T12:52:26;9.70;;;4.60;;
17604;SDS011;8921;50.964;6.800;2023-09-07T12:54:54;10.30;;;5.30;;
17604;SDS011;8921;50.964;6.800;2023-09-07T12:57:23;7.30;;;4.43;;
17604;SDS011;8921;50.964;6.800;2023-09-07T12:59:51;10.17;;;4.63;;
17604;SDS011;8921;50.964;6.800;2023-09-07T13:02:19;7.57;;;5.03;;
17604;SDS011;8921;50.964;6.800;2023-09-07T13:04:47;8.37;;;5.43;;
17604;SDS011;8921;50.964;6.800;2023-09-07T13:07:16;8.20;;;5.40;;
17604;SDS011;8921;50.964;6.800;2023-09-07T13:09:44;9.13;;;4.90;;
17604;SDS011;8921;50.964;6.800;2023-09-07T13:12:12;16.53;;;5.93;;
17604;SDS011;8921;50.964;6.800;2023-09-07T13:14:40;11.57;;;4.80;;
17604;SDS011;8921;50.964;6.800;2023-09-07T13:17:12;6.97;;;4.57;;
17604;SDS011;8921;50.964;6.800;2023-09-07T13:19:37;8.40;;;4.47;;
17604;SDS011;8921;50.964;6.800;2023-09-07T13:24:44;9.30;;;4.70;;
17604;SDS011;8921;50.964;6.800;2023-09-07T13:27:12;7.00;;;4.50;;
17604;SDS011;8921;50.964;6.800;2023-09-07T13:29:41;7.60;;;4.30;;
17604;SDS011;8921;50.964;6.800;2023-09-07T13:32:09;10.30;;;5.20;;
17604;SDS011;8921;50.964;6.800;2023-09-07T13:34:37;7.33;;;4.90;;
17604;SDS011;8921;50.964;6.800;2023-09-07T13:37:06;13.03;;;4.73;;
17604;SDS011;8921;50.964;6.800;2023-09-07T13:39:34;7.17;;;4.40;;
17604;SDS011;8921;50.964;6.800;2023-09-07T13:42:02;9.67;;;3.90;;
17604;SDS011;8921;50.964;6.800;2023-09-07T13:44:31;6.70;;;4.50;;
17604;SDS011;8921;50.964;6.800;2023-09-07T13:46:59;7.33;;;4.83;;
17604;SDS011;8921;50.964;6.800;2023-09-07T13:49:27;7.50;;;5.10;;
17604;SDS011;8921;50.964;6.800;2023-09-07T13:51:55;7.93;;;5.30;;
17604;SDS011;8921;50.964;6.800;2023-09-07T13:54:24;11.93;;;4.90;;
17604;SDS011;8921;50.964;6.800;2023-09-07T13:56:52;8.43;;;4.40;;
17604;SDS011;8921;50.964;6.800;2023-09-07T13:59:20;11.80;;;5.60;;
17604;SDS011;8921;50.964;6.800;2023-09-07T14:01:48;8.07;;;4.57;;
17604;SDS011;8921;50.964;6.800;2023-09-07T14:04:17;8.97;;;4.90;;
17604;SDS011;8921;50.964;6.800;2023-09-07T14:06:45;9.83;;;5.10;;
17604;SDS011;8921;50.964;6.800;2023-09-07T14:09:13;8.50;;;5.07;;
17604;SDS011;8921;50.964;6.800;2023-09-07T14:11:41;11.03;;;4.30;;
17604;SDS011;8921;50.964;6.800;2023-09-07T14:14:10;6.53;;;4.27;;
17604;SDS011;8921;50.964;6.800;2023-09-07T14:16:38;7.17;;;4.13;;
17604;SDS011;8921;50.964;6.800;2023-09-07T14:19:06;6.97;;;4.40;;
17604;SDS011;8921;50.964;6.800;2023-09-07T14:21:35;7.00;;;3.63;;
17604;SDS011;8921;50.964;6.800;2023-09-07T14:24:03;9.60;;;3.37;;
17604;SDS011;8921;50.964;6.800;2023-09-07T14:26:31;10.53;;;4.80;;
17604;SDS011;8921;50.964;6.800;2023-09-07T14:29:00;8.87;;;4.63;;
17604;SDS011;8921;50.964;6.800;2023-09-07T14:31:28;7.67;;;4.30;;
17604;SDS011;8921;50.964;6.800;2023-09-07T14:33:56;8.63;;;4.60;;
17604;SDS011;8921;50.964;6.800;2023-09-07T14:36:24;9.10;;;3.80;;
17604;SDS011;8921;50.964;6.800;2023-09-07T14:38:53;11.27;;;3.90;;
17604;SDS011;8921;50.964;6.800;2023-09-07T14:41:21;7.40;;;3.87;;
17604;SDS011;8921;50.964;6.800;2023-09-07T14:43:49;8.87;;;4.60;;
17604;SDS011;8921;50.964;6.800;2023-09-07T14:46:18;7.37;;;4.60;;
17604;SDS011;8921;50.964;6.800;2023-09-07T14:48:46;7.97;;;4.70;;
17604;SDS011;8921;50.964;6.800;2023-09-07T14:51:14;12.00;;;4.53;;
17604;SDS011;8921;50.964;6.800;2023-09-07T14:53:43;8.23;;;4.43;;
17604;SDS011;8921;50.964;6.800;2023-09-07T14:56:11;10.50;;;4.53;;
17604;SDS011;8921;50.964;6.800;2023-09-07T14:58:39;11.10;;;4.83;;
17604;SDS011;8921;50.964;6.800;2023-09-07T15:01:07;9.10;;;4.40;;
17604;SDS011;8921;50.964;6.800;2023-09-07T15:03:36;6.90;;;4.50;;
17604;SDS011;8921;50.964;6.800;2023-09-07T15:06:04;8.50;;;4.90;;
17604;SDS011;8921;50.964;6.800;2023-09-07T15:08:32;7.00;;;4.10;;